Time;durP1;ratioP1;P1;durP2;ratioP2;P2;SDS_P1;SDS_P2;PMS_P1;PMS_P2;Temp;Humidity;BMP_temperature;BMP_pressure;BME280_temperature;BME280_humidity;BME280_pressure;Samples;Min_cycle;Max_cycle;Signal;HPM_P1;HPM_P2
2022/06/13 00:01:16;;;;;;;3.17;2.47;;;;;;;13.46;100.00;90964.81;5073587;28;20028;-68
2022/06/13 00:03:41;;;;;;;4.75;2.42;;;;;;;13.33;100.00;90960.50;5073614;28;20036;-67
2022/06/13 00:06:07;;;;;;;3.55;2.60;;;;;;;13.27;100.00;90958.34;5071997;28;20554;-67
2022/06/13 00:08:33;;;;;;;5.00;3.00;;;;;;;13.19;100.00;90959.94;5073344;28;20177;-67
2022/06/13 00:10:59;;;;;;;5.47;2.90;;;;;;;13.14;100.00;90957.44;5073458;28;20049;-67
2022/06/13 00:13:25;;;;;;;4.93;2.90;;;;;;;13.09;100.00;90955.72;5073444;28;20048;-67
2022/06/13 00:15:50;;;;;;;6.80;2.90;;;;;;;13.04;100.00;90952.44;5073384;28;20041;-68
2022/06/13 00:18:16;;;;;;;4.50;3.17;;;;;;;12.98;100.00;90954.53;5073395;28;20053;-68
2022/06/13 00:20:41;;;;;;;3.75;2.95;;;;;;;12.97;100.00;90957.53;5073390;28;20494;-67
2022/06/13 00:23:07;;;;;;;3.90;2.60;;;;;;;13.01;100.00;90969.13;5073231;28;20111;-68
2022/06/13 00:25:32;;;;;;;3.55;2.92;;;;;;;12.98;100.00;90959.09;5073265;28;20192;-68
2022/06/13 00:27:58;;;;;;;3.92;2.83;;;;;;;12.92;100.00;90966.47;5073028;28;20071;-67
2022/06/13 00:30:24;;;;;;;3.60;2.70;;;;;;;12.92;100.00;90965.69;5073388;28;20044;-67
2022/06/13 00:32:50;;;;;;;3.75;3.03;;;;;;;12.86;100.00;90973.13;5073051;28;20352;-67
2022/06/13 00:35:17;;;;;;;4.43;2.60;;;;;;;12.82;100.00;90972.97;5073009;28;20528;-67
2022/06/13 00:37:42;;;;;;;3.72;2.70;;;;;;;12.81;100.00;90974.09;5072858;28;20044;-67
2022/06/13 00:40:09;;;;;;;3.90;3.15;;;;;;;12.82;100.00;90978.31;5073124;28;20547;-67
2022/06/13 00:42:35;;;;;;;2.88;2.50;;;;;;;12.79;100.00;90978.97;5071595;28;20102;-67
2022/06/13 00:45:13;;;;;;;4.85;2.63;;;;;;;12.67;100.00;90976.19;5072821;28;20037;-67
2022/06/13 00:47:41;;;;;;;4.10;2.65;;;;;;;12.61;100.00;90972.09;5070158;28;20043;-67
2022/06/13 00:50:10;;;;;;;4.97;2.97;;;;;;;12.56;100.00;90970.41;5072594;28;20032;-67
2022/06/13 00:53:03;;;;;;;4.30;2.60;;;;;;;12.56;100.00;90985.63;5072491;28;20052;-68
2022/06/13 00:55:37;;;;;;;5.85;3.10;;;;;;;12.54;100.00;90977.16;5072566;28;20036;-68
2022/06/13 00:58:04;;;;;;;4.30;2.78;;;;;;;12.49;100.00;90967.44;5072586;28;20051;-68
2022/06/13 01:00:32;;;;;;;4.10;3.15;;;;;;;12.54;100.00;90979.81;5072588;28;20064;-68
2022/06/13 01:03:00;;;;;;;3.80;2.90;;;;;;;12.48;100.00;90978.44;5072471;28;20040;-68
2022/06/13 01:05:29;;;;;;;4.70;3.08;;;;;;;12.44;100.00;90988.16;5072148;28;20071;-67
2022/06/13 01:07:58;;;;;;;3.70;2.53;;;;;;;12.43;100.00;90987.38;5072281;28;20047;-67
2022/06/13 01:13:10;;;;;;;4.30;3.03;;;;;;;12.28;100.00;90988.66;5072517;28;20472;-68
2022/06/13 01:15:57;;;;;;;4.00;2.70;;;;;;;12.26;100.00;90987.41;5072231;28;20045;-68
2022/06/13 01:18:47;;;;;;;7.07;3.05;;;;;;;12.25;100.00;90986.63;5072051;28;20140;-68
2022/06/13 01:21:41;;;;;;;4.18;3.20;;;;;;;12.35;100.00;90988.19;5072122;28;20043;-68
2022/06/13 01:24:57;;;;;;;4.65;2.92;;;;;;;12.35;100.00;90979.41;5072058;28;20021;-68
2022/06/13 01:27:38;;;;;;;4.32;2.90;;;;;;;12.37;100.00;90985.22;5067010;28;20055;-68
2022/06/13 01:30:04;;;;;;;5.30;2.80;;;;;;;12.38;100.00;90984.88;5071876;28;20397;-68
2022/06/13 01:32:35;;;;;;;3.30;2.78;;;;;;;12.37;100.00;90988.66;5071826;28;20155;-68
2022/06/13 01:35:15;;;;;;;3.78;2.90;;;;;;;12.39;100.00;90977.66;5071849;28;20025;-68
2022/06/13 01:38:07;;;;;;;5.95;3.28;;;;;;;12.39;100.00;90967.00;5071683;28;20029;-68
2022/06/13 01:40:49;;;;;;;4.43;2.80;;;;;;;12.32;100.00;90969.38;5071743;28;20020;-68
2022/06/13 01:43:30;;;;;;;4.25;2.88;;;;;;;12.37;100.00;90971.88;5071684;28;20040;-68
2022/06/13 01:46:05;;;;;;;3.10;2.70;;;;;;;12.36;100.00;90967.63;5071663;28;20032;-68
2022/06/13 01:48:33;;;;;;;3.90;2.95;;;;;;;12.30;100.00;90967.78;5071436;28;20032;-68
2022/06/13 01:51:08;;;;;;;4.43;2.88;;;;;;;12.24;100.00;90970.94;5071533;28;20035;-68
2022/06/13 01:53:36;;;;;;;2.78;2.58;;;;;;;12.24;100.00;90968.28;5071534;28;20541;-68
2022/06/13 01:56:09;;;;;;;4.10;2.80;;;;;;;12.21;100.00;90964.38;5071492;28;20031;-68
2022/06/13 01:58:37;;;;;;;;;;;;;;;12.14;100.00;90969.38;5071787;28;20390;-67
2022/06/13 02:01:23;;;;;;;4.00;2.88;;;;;;;12.06;100.00;90964.09;5071434;28;19908;-68
2022/06/13 02:06:27;;;;;;;6.35;2.88;;;;;;;12.13;100.00;90967.03;5182215;22;20072;-67
2022/06/13 02:08:57;;;;;;;;;;;;;;;12.14;100.00;90965.94;5051651;28;20037;-65
2022/06/13 02:11:34;;;;;;;4.10;2.67;;;;;;;12.09;100.00;90969.56;5051514;28;20318;-65
2022/06/13 02:14:13;;;;;;;3.40;2.88;;;;;;;12.11;100.00;90966.56;5051293;28;20068;-65
2022/06/13 02:16:56;;;;;;;5.25;2.92;;;;;;;12.09;100.00;90971.44;5051118;28;20024;-65
2022/06/13 02:20:00;;;;;;;;;;;;;;;12.17;100.00;90974.13;5051554;28;20044;-66
2022/06/13 02:22:31;;;;;;;3.97;3.00;;;;;;;12.17;100.00;90968.78;4951047;29;19914;-66
2022/06/13 02:25:03;;;;;;;3.75;3.38;;;;;;;12.21;100.00;90974.25;4934867;29;20035;-66
2022/06/13 02:27:33;;;;;;;4.63;3.28;;;;;;;12.24;100.00;90969.06;5005147;28;20047;-65
2022/06/13 02:30:05;;;;;;;3.72;2.60;;;;;;;12.30;100.00;90973.13;5051017;28;20029;-65
2022/06/13 02:32:50;;;;;;;4.63;2.42;;;;;;;12.27;100.00;90973.75;5050988;28;20548;-65
2022/06/13 02:35:23;;;;;;;3.03;2.70;;;;;;;12.33;100.00;90973.63;5050821;28;20056;-65
2022/06/13 02:38:01;;;;;;;3.15;2.67;;;;;;;12.32;100.00;90980.06;5050992;28;20414;-66
2022/06/13 02:40:37;;;;;;;4.70;2.90;;;;;;;12.34;100.00;90983.97;5050818;28;20025;-65
2022/06/13 02:43:17;;;;;;;3.95;2.90;;;;;;;12.28;100.00;90986.00;5050923;28;20120;-65
2022/06/13 02:46:06;;;;;;;3.03;2.53;;;;;;;12.32;100.00;90983.50;5051002;28;20044;-65
2022/06/13 02:48:40;;;;;;;4.10;3.05;;;;;;;12.36;100.00;90984.44;5050355;28;20033;-65
2022/06/13 02:51:38;;;;;;;4.03;3.20;;;;;;;12.28;100.00;90988.66;5050839;28;20035;-66
2022/06/13 02:54:13;;;;;;;4.30;3.00;;;;;;;12.33;100.00;90986.94;5010744;28;20043;-66
2022/06/13 02:57:24;;;;;;;3.95;2.65;;;;;;;12.30;100.00;90985.69;5050766;28;20112;-66
2022/06/13 02:59:55;;;;;;;3.17;2.80;;;;;;;12.25;100.00;90985.84;5050723;28;20506;-66
2022/06/13 03:02:29;;;;;;;4.13;2.92;;;;;;;12.24;100.00;90977.06;5050689;28;20029;-66
2022/06/13 03:05:08;;;;;;;5.22;3.28;;;;;;;12.24;100.00;90982.41;5050468;28;20045;-66
2022/06/13 03:07:43;;;;;;;4.50;3.10;;;;;;;12.32;100.00;90993.38;5050682;28;20032;-66
2022/06/13 03:10:16;;;;;;;3.78;3.03;;;;;;;12.37;100.00;90999.31;5050497;28;20033;-66
2022/06/13 03:12:41;;;;;;;3.37;2.80;;;;;;;12.40;100.00;90997.91;5050691;28;20024;-66
2022/06/13 03:15:17;;;;;;;4.43;3.13;;;;;;;12.45;100.00;91000.41;5050490;28;20029;-67
2022/06/13 03:17:59;;;;;;;3.25;2.38;;;;;;;12.44;100.00;90998.84;5032749;28;20110;-66
2022/06/13 03:20:25;;;;;;;3.43;3.00;;;;;;;12.41;100.00;90999.47;5050506;28;20052;-66
2022/06/13 03:22:56;;;;;;;3.40;2.63;;;;;;;12.39;100.00;90993.69;5050538;28;20772;-67
2022/06/13 03:25:43;;;;;;;3.47;2.65;;;;;;;12.40;100.00;91004.03;5050361;28;20025;-66
2022/06/13 03:28:20;;;;;;;4.45;2.90;;;;;;;12.40;100.00;90995.25;5050416;28;20025;-66
2022/06/13 03:30:55;;;;;;;4.85;2.95;;;;;;;12.46;100.00;91007.31;5053255;28;20021;-66
2022/06/13 03:33:41;;;;;;;3.30;3.00;;;;;;;12.52;100.00;91011.38;5054155;28;20410;-67
2022/06/13 03:36:22;;;;;;;7.07;4.15;;;;;;;12.56;100.00;91018.44;5053952;28;20033;-67
2022/06/13 03:39:19;;;;;;;3.90;3.15;;;;;;;12.72;100.00;91013.38;5054103;28;20021;-66
2022/06/13 03:41:53;;;;;;;3.58;2.83;;;;;;;12.72;100.00;91008.03;5054029;28;20036;-66
2022/06/13 03:44:29;;;;;;;3.55;3.10;;;;;;;12.78;100.00;91012.09;5054154;28;20033;-65
2022/06/13 03:47:17;;;;;;;2.83;2.53;;;;;;;12.92;100.00;91019.09;5036018;28;20414;-66
2022/06/13 03:50:07;;;;;;;5.22;3.35;;;;;;;12.95;100.00;91018.47;5054100;28;20060;-66
2022/06/13 03:52:37;;;;;;;6.63;4.60;;;;;;;13.01;100.00;91025.22;5053269;28;20045;-66
2022/06/13 03:55:14;;;;;;;4.30;3.03;;;;;;;13.01;100.00;91022.53;5054042;28;20577;-66
2022/06/13 03:57:48;;;;;;;3.17;2.88;;;;;;;13.01;100.00;91014.53;5053771;28;20029;-66
2022/06/13 04:00:22;;;;;;;11.77;6.00;;;;;;;12.98;100.00;91007.94;5051662;28;20435;-65
2022/06/13 04:02:48;;;;;;;8.52;5.53;;;;;;;12.89;100.00;91010.63;5044429;28;20033;-65
2022/06/13 04:05:20;;;;;;;6.05;3.00;;;;;;;13.04;100.00;91024.56;5034199;28;20077;-66
2022/06/13 04:07:45;;;;;;;4.47;3.53;;;;;;;13.09;100.00;91021.69;5033610;28;20036;-65
2022/06/13 04:10:15;;;;;;;3.30;2.97;;;;;;;13.24;100.00;91021.19;5033464;28;20430;-66
2022/06/13 04:12:52;;;;;;;3.65;2.72;;;;;;;13.35;100.00;91016.28;5033571;28;20029;-66
2022/06/13 04:15:33;;;;;;;4.88;3.80;;;;;;;13.45;100.00;91019.38;5033456;28;20037;-66
2022/06/13 04:18:35;;;;;;;5.30;3.40;;;;;;;13.57;100.00;91013.34;5033515;28;20037;-66
2022/06/13 04:21:57;;;;;;;6.22;3.65;;;;;;;13.63;100.00;91014.69;5030715;28;20073;-66
2022/06/13 04:24:38;;;;;;;4.30;3.20;;;;;;;13.75;100.00;91014.78;4972203;28;20030;-66
2022/06/13 04:27:20;;;;;;;4.45;3.28;;;;;;;13.88;100.00;91012.94;4972291;28;20098;-65
2022/06/13 04:30:09;;;;;;;3.55;2.88;;;;;;;14.02;100.00;91010.00;5013890;28;20453;-65
2022/06/13 04:32:45;;;;;;;4.18;3.20;;;;;;;14.15;100.00;91010.84;5033314;28;20415;-66
2022/06/13 04:35:12;;;;;;;4.88;3.60;;;;;;;14.20;100.00;91007.97;5033000;28;20555;-66
2022/06/13 04:37:39;;;;;;;5.47;3.33;;;;;;;14.32;100.00;91006.13;5033099;28;20029;-65
2022/06/13 04:40:08;;;;;;;3.90;3.15;;;;;;;14.39;100.00;91010.97;5032830;28;20030;-66
2022/06/13 04:42:37;;;;;;;4.03;3.25;;;;;;;14.51;100.00;91016.38;5033120;28;20493;-66
2022/06/13 04:45:22;;;;;;;3.72;3.00;;;;;;;14.70;100.00;91012.44;5032946;28;20033;-66
2022/06/13 04:47:50;;;;;;;4.30;3.65;;;;;;;14.87;100.00;91009.56;5032930;28;20112;-67
2022/06/13 04:50:21;;;;;;;4.15;3.22;;;;;;;15.11;100.00;91014.16;5032728;28;20025;-66
2022/06/13 04:52:50;;;;;;;3.33;2.75;;;;;;;15.26;100.00;91008.16;5032814;28;20030;-66
2022/06/13 04:55:25;;;;;;;5.95;3.03;;;;;;;15.43;100.00;91007.94;5032696;28;20522;-66
2022/06/13 04:57:51;;;;;;;3.58;2.30;;;;;;;15.39;100.00;91009.72;5032776;28;20033;-65
2022/06/13 05:00:17;;;;;;;2.92;2.63;;;;;;;15.38;100.00;91010.84;5032645;28;20026;-66
2022/06/13 05:02:46;;;;;;;2.65;2.08;;;;;;;15.50;100.00;91015.44;5032563;28;20037;-66
2022/06/13 05:05:40;;;;;;;4.35;2.70;;;;;;;15.70;100.00;91008.41;5032158;28;20554;-65
2022/06/13 05:08:11;;;;;;;;;;;;;;;15.86;100.00;91006.56;5033104;28;20022;-64
2022/06/13 05:10:40;;;;;;;3.85;2.55;;;;;;;15.93;100.00;90997.94;5032307;28;19913;-64
2022/06/13 05:13:05;;;;;;;2.53;2.20;;;;;;;16.20;100.00;91001.78;5032337;28;20025;-65
2022/06/13 05:15:32;;;;;;;3.00;2.45;;;;;;;16.31;100.00;91000.97;5032236;28;20018;-64
2022/06/13 05:18:32;;;;;;;4.20;2.83;;;;;;;16.65;100.00;91010.34;5032349;28;20037;-64
2022/06/13 05:21:21;;;;;;;3.22;2.78;;;;;;;16.86;100.00;91004.00;5032266;28;20029;-64
2022/06/13 05:24:08;;;;;;;3.30;2.25;;;;;;;17.01;100.00;91012.09;5032179;28;20033;-64
2022/06/13 05:26:34;;;;;;;3.00;2.30;;;;;;;17.38;100.00;91005.69;5032139;28;20053;-64
2022/06/13 05:29:00;;;;;;;5.57;2.33;;;;;;;17.60;100.00;91005.84;5032016;28;20079;-64
2022/06/13 05:31:27;;;;;;;3.53;2.22;;;;;;;17.81;100.00;91002.09;5032118;28;20029;-64
2022/06/13 05:33:54;;;;;;;3.45;2.50;;;;;;;18.02;100.00;91002.59;5031816;28;20037;-64
2022/06/13 05:36:23;;;;;;;2.65;2.40;;;;;;;18.18;100.00;91002.53;5031884;28;20087;-64
2022/06/13 05:38:56;;;;;;;3.30;2.70;;;;;;;18.14;100.00;90999.75;5031885;28;20033;-64
2022/06/13 05:41:22;;;;;;;2.42;2.20;;;;;;;18.15;100.00;90990.56;5031801;28;20030;-63
2022/06/13 05:43:47;;;;;;;2.65;2.38;;;;;;;18.41;100.00;90987.25;5031751;28;20034;-64
2022/06/13 05:46:22;;;;;;;3.13;1.95;;;;;;;18.66;100.00;90987.78;5031540;28;20495;-65
2022/06/13 05:48:50;;;;;;;3.85;2.30;;;;;;;20.91;100.00;91000.06;5031608;28;20666;-64
2022/06/13 05:51:15;;;;;;;2.33;2.13;;;;;;;23.82;86.74;91005.72;5031728;28;20410;-65
2022/06/13 05:53:41;;;;;;;2.55;2.30;;;;;;;25.75;70.63;91003.25;5030801;28;20470;-65
2022/06/13 05:56:10;;;;;;;2.78;2.40;;;;;;;26.89;62.97;91005.75;5031451;28;20030;-65
2022/06/13 05:58:36;;;;;;;2.38;2.05;;;;;;;28.69;58.71;91000.06;5031334;28;20094;-65
2022/06/13 06:01:02;;;;;;;4.25;3.22;;;;;;;30.09;52.34;91011.34;5031454;28;20056;-65
2022/06/13 06:03:28;;;;;;;2.85;2.50;;;;;;;32.63;48.37;91005.16;5031575;28;20164;-66
2022/06/13 06:05:55;;;;;;;4.30;2.70;;;;;;;33.18;45.39;90994.66;5030970;28;20075;-65
2022/06/13 06:08:33;;;;;;;2.38;2.17;;;;;;;35.06;42.04;90990.19;5031177;28;20083;-65
2022/06/13 06:10:59;;;;;;;2.22;2.03;;;;;;;34.28;41.70;90990.59;5031227;28;20030;-65
2022/06/13 06:13:26;;;;;;;2.55;2.28;;;;;;;33.97;41.03;90987.09;5031283;28;20384;-65
2022/06/13 06:15:52;;;;;;;2.67;1.90;;;;;;;33.64;42.11;90990.25;5031303;28;20037;-66
2022/06/13 06:18:20;;;;;;;2.83;2.13;;;;;;;34.02;41.29;90989.25;5031156;28;20442;-65
2022/06/13 06:20:45;;;;;;;2.70;2.15;;;;;;;33.61;42.16;90989.19;5031206;28;20033;-65
2022/06/13 06:23:12;;;;;;;4.35;2.35;;;;;;;31.51;45.21;90989.69;5031006;28;20052;-64
2022/06/13 06:25:39;;;;;;;2.45;2.25;;;;;;;29.68;47.96;90989.16;5031222;28;20175;-64
2022/06/13 06:28:05;;;;;;;3.08;2.08;;;;;;;31.31;45.25;90989.84;5031133;28;20107;-65
2022/06/13 06:30:31;;;;;;;3.33;2.00;;;;;;;33.21;43.61;90989.00;5031087;28;20036;-63
2022/06/13 06:32:57;;;;;;;2.65;2.00;;;;;;;33.63;42.23;90997.78;5031038;28;20025;-65
2022/06/13 06:35:25;;;;;;;2.42;2.22;;;;;;;35.67;38.85;91001.44;5030951;28;20406;-66
2022/06/13 06:37:52;;;;;;;6.28;3.15;;;;;;;36.73;37.23;91000.47;5025977;28;20388;-66
2022/06/13 06:40:20;;;;;;;6.15;2.25;;;;;;;34.46;39.01;91000.97;5013549;28;20414;-66
2022/06/13 06:42:46;;;;;;;2.67;2.10;;;;;;;32.89;42.05;90989.34;5030781;28;20448;-65
2022/06/13 06:45:12;;;;;;;2.55;2.28;;;;;;;32.48;43.23;90994.59;5030692;28;20032;-65
2022/06/13 06:47:41;;;;;;;6.40;5.00;;;;;;;33.04;42.89;91004.19;5030810;28;20570;-66
2022/06/13 06:50:13;;;;;;;3.08;2.55;;;;;;;32.66;42.92;90996.00;5030670;28;20029;-66
2022/06/13 06:52:40;;;;;;;4.35;3.10;;;;;;;32.42;42.94;91009.38;5030124;28;20033;-66
2022/06/13 07:00:36;;;;;;;4.97;2.97;;;;;;;33.75;41.95;91009.16;5030722;28;20033;-66
2022/06/13 07:03:01;;;;;;;2.55;2.35;;;;;;;34.42;41.44;91000.34;5030582;28;20033;-66
2022/06/13 07:05:26;;;;;;;2.85;2.47;;;;;;;34.27;42.25;91000.09;5034390;28;20037;-66
2022/06/13 07:07:52;;;;;;;2.78;2.38;;;;;;;32.81;42.35;90990.81;5034164;28;20021;-66
2022/06/13 07:10:17;;;;;;;3.75;2.15;;;;;;;32.24;45.23;90990.66;5034372;28;20610;-66
2022/06/13 07:12:43;;;;;;;6.65;4.28;;;;;;;34.03;41.59;90993.53;5034426;28;20037;-66
2022/06/13 07:15:12;;;;;;;7.82;5.95;;;;;;;32.70;42.70;90989.16;5034203;28;20029;-67
2022/06/13 07:17:37;;;;;;;2.95;2.25;;;;;;;34.35;41.38;90995.81;5034375;28;20032;-66
2022/06/13 07:20:03;;;;;;;8.93;3.20;;;;;;;36.34;38.47;90991.28;5034310;28;20410;-66
2022/06/13 07:22:28;;;;;;;4.20;3.17;;;;;;;35.73;39.66;91010.63;5033874;28;20060;-66
2022/06/13 07:24:54;;;;;;;2.80;2.50;;;;;;;33.60;42.89;91006.91;5034147;28;20029;-66
2022/06/13 07:27:19;;;;;;;2.83;2.40;;;;;;;33.51;42.46;91003.34;5034171;28;20029;-66
2022/06/13 07:29:45;;;;;;;2.83;2.40;;;;;;;35.08;41.42;91000.81;5034276;28;20029;-66
2022/06/13 07:32:16;;;;;;;3.95;3.20;;;;;;;35.69;39.79;90994.19;5034284;28;20025;-67
2022/06/13 07:34:44;;;;;;;4.38;3.35;;;;;;;33.18;40.46;90998.19;5033871;28;20037;-66
2022/06/13 07:37:13;;;;;;;4.80;3.28;;;;;;;34.15;40.67;90996.22;5033350;28;20537;-66
2022/06/13 07:39:39;;;;;;;4.50;2.92;;;;;;;33.47;42.89;90997.19;5033844;28;20076;-66
2022/06/13 07:42:05;;;;;;;32.83;20.00;;;;;;;32.44;43.04;90987.66;5034001;28;20441;-66
2022/06/13 07:44:39;;;;;;;2.63;2.30;;;;;;;33.62;41.26;91000.97;5033671;28;20026;-66
2022/06/13 07:47:05;;;;;;;3.30;2.50;;;;;;;33.80;40.57;91009.38;5033707;28;20090;-66
2022/06/13 07:49:31;;;;;;;7.43;2.35;;;;;;;35.10;41.16;90992.81;5033730;28;20109;-66
2022/06/13 07:51:57;;;;;;;2.53;2.08;;;;;;;34.41;39.51;90993.28;5033357;28;20022;-66
2022/06/13 07:54:22;;;;;;;5.70;4.55;;;;;;;35.11;39.67;91005.41;5033438;28;20465;-66
2022/06/13 07:56:48;;;;;;;2.60;2.40;;;;;;;31.81;43.72;91000.22;5033510;28;20071;-65
2022/06/13 07:59:24;;;;;;;2.88;2.55;;;;;;;30.67;46.36;90995.06;5033435;28;20026;-66
2022/06/13 08:01:50;;;;;;;2.50;2.30;;;;;;;29.49;47.91;90991.50;5033526;28;20026;-66
2022/06/13 08:04:15;;;;;;;3.40;2.20;;;;;;;33.60;43.01;90998.66;5033364;28;20091;-65
2022/06/13 08:06:44;;;;;;;9.93;2.95;;;;;;;34.39;41.33;90995.69;5033214;28;20033;-66
2022/06/13 08:09:11;;;;;;;2.85;2.65;;;;;;;34.42;41.59;91001.09;5033195;28;20032;-66
2022/06/13 08:11:43;;;;;;;2.20;2.00;;;;;;;35.11;41.24;91000.66;5033153;28;20036;-66
2022/06/13 08:14:10;;;;;;;2.20;2.05;;;;;;;35.11;41.87;90997.13;5033377;28;20037;-67
2022/06/13 08:16:35;;;;;;;2.20;1.92;;;;;;;34.55;41.45;91009.25;5032688;28;20026;-66
2022/06/13 08:19:03;;;;;;;3.53;2.15;;;;;;;35.21;39.74;91011.72;5033367;28;20036;-66
2022/06/13 08:21:30;;;;;;;2.53;2.33;;;;;;;30.73;46.28;90997.28;5033363;28;20040;-66
2022/06/13 08:23:56;;;;;;;2.40;2.20;;;;;;;31.77;45.49;91002.31;5033157;28;20486;-66
2022/06/13 08:26:22;;;;;;;2.30;2.10;;;;;;;33.19;42.86;91001.72;5033139;28;20060;-66
2022/06/13 08:28:48;;;;;;;2.63;2.40;;;;;;;30.97;45.15;91001.38;5033342;28;20075;-66
2022/06/13 08:31:17;;;;;;;5.65;2.28;;;;;;;33.02;43.35;91004.66;5033123;28;20041;-67
2022/06/13 08:33:43;;;;;;;3.47;2.60;;;;;;;30.44;46.86;91005.44;5033271;28;20022;-67
2022/06/13 08:36:09;;;;;;;3.00;2.22;;;;;;;31.93;47.71;90998.69;5015389;28;20026;-67
2022/06/13 08:38:36;;;;;;;2.70;2.42;;;;;;;32.22;46.14;91003.31;5032937;28;20029;-67
2022/06/13 08:41:06;;;;;;;4.63;2.78;;;;;;;34.92;42.32;91001.09;5032905;28;20112;-68
2022/06/13 08:43:38;;;;;;;4.10;2.80;;;;;;;35.84;39.48;90994.34;5033068;28;20033;-68
2022/06/13 08:46:09;;;;;;;4.35;2.63;;;;;;;35.85;40.45;91006.97;5032952;28;20037;-67
2022/06/13 08:48:46;;;;;;;5.18;3.42;;;;;;;35.40;39.31;91000.22;5032782;28;20034;-67
2022/06/13 08:51:22;;;;;;;7.75;5.95;;;;;;;35.12;41.59;90995.88;5032772;28;20445;-67
2022/06/13 08:54:00;;;;;;;6.57;4.05;;;;;;;32.63;42.93;90994.91;5032611;28;20117;-66
2022/06/13 08:56:30;;;;;;;3.80;3.22;;;;;;;28.50;49.50;90996.88;5032805;28;20030;-66
2022/06/13 08:59:22;;;;;;;2.63;2.42;;;;;;;27.98;53.08;90996.53;5032499;28;20465;-66
2022/06/13 09:02:01;;;;;;;3.28;2.85;;;;;;;28.13;53.96;90992.41;5032515;28;20029;-66
2022/06/13 09:04:52;;;;;;;3.47;2.80;;;;;;;25.35;57.57;90992.53;5032137;28;20079;-66
2022/06/13 09:07:36;;;;;;;6.38;3.78;;;;;;;25.51;63.08;90985.84;5023408;28;20155;-67
2022/06/13 09:10:05;;;;;;;3.28;2.53;;;;;;;30.22;53.22;90985.97;5032304;28;20152;-66
2022/06/13 09:12:46;;;;;;;2.65;2.45;;;;;;;31.59;45.63;90988.28;5032349;28;20034;-66
2022/06/13 09:15:28;;;;;;;4.85;3.08;;;;;;;32.96;43.95;90995.38;5032419;28;20403;-67
2022/06/13 09:18:01;;;;;;;2.60;2.40;;;;;;;33.95;42.75;90990.31;5032299;28;20033;-68
2022/06/13 09:20:40;;;;;;;8.40;6.22;;;;;;;32.91;43.57;90992.44;5032184;28;20053;-67
2022/06/13 09:23:14;;;;;;;4.82;3.60;;;;;;;34.86;40.63;90997.38;5032065;28;20033;-68
2022/06/13 09:25:55;;;;;;;3.03;2.72;;;;;;;33.66;41.19;90993.34;5031979;28;20026;-66
2022/06/13 09:28:28;;;;;;;6.40;4.33;;;;;;;34.14;42.75;90991.91;5030922;28;20039;-66
2022/06/13 09:31:07;;;;;;;6.57;3.20;;;;;;;35.24;40.80;90989.44;5032012;28;20159;-66
2022/06/13 09:33:38;;;;;;;11.15;3.15;;;;;;;37.26;37.12;90999.88;5031868;28;20033;-66
2022/06/13 09:36:25;;;;;;;10.45;3.72;;;;;;;37.72;37.14;90989.94;5031964;28;20447;-67
2022/06/13 09:39:00;;;;;;;2.53;2.30;;;;;;;35.84;36.62;90980.50;5031865;28;20033;-66
2022/06/13 09:41:55;;;;;;;3.22;2.92;;;;;;;32.61;43.30;90978.03;5031843;28;20029;-66
2022/06/13 09:44:40;;;;;;;4.50;3.20;;;;;;;31.29;45.24;90990.28;5031690;28;20033;-66
2022/06/13 09:47:36;;;;;;;7.15;3.67;;;;;;;31.80;44.09;90984.91;5031702;28;20082;-65
2022/06/13 09:50:18;;;;;;;4.80;4.05;;;;;;;30.66;46.97;90982.56;5031636;28;20033;-66
2022/06/13 09:53:17;;;;;;;6.25;4.50;;;;;;;28.15;50.69;90979.06;5031835;28;20025;-66
2022/06/13 09:55:53;;;;;;;5.40;4.13;;;;;;;29.46;49.13;90975.13;5031520;28;20102;-66
2022/06/13 09:58:46;;;;;;;6.57;3.42;;;;;;;28.40;49.65;90977.91;5031504;28;20036;-66
2022/06/13 10:01:20;;;;;;;4.85;3.33;;;;;;;28.92;50.09;90975.44;5031736;28;20029;-66
2022/06/13 10:04:02;;;;;;;6.07;3.35;;;;;;;30.54;47.45;90969.50;5031350;28;20030;-66
2022/06/13 10:06:40;;;;;;;3.90;2.78;;;;;;;32.29;44.68;90972.81;5031159;28;20053;-66
2022/06/13 10:09:25;;;;;;;4.57;3.08;;;;;;;34.46;40.55;90968.56;5031511;28;20442;-66
2022/06/13 10:12:17;;;;;;;3.47;3.17;;;;;;;33.82;42.88;90970.28;5031331;28;20529;-67
2022/06/13 10:14:48;;;;;;;5.85;2.75;;;;;;;36.13;37.46;90968.09;5000851;28;20069;-67
2022/06/13 10:17:28;;;;;;;9.43;3.85;;;;;;;34.09;42.86;90973.19;5031283;28;20030;-66
2022/06/13 10:20:15;;;;;;;5.05;3.35;;;;;;;32.82;42.73;90962.81;5031127;28;20065;-67
2022/06/13 10:22:51;;;;;;;3.17;2.80;;;;;;;32.07;43.61;90959.72;5031274;28;20102;-67
2022/06/13 10:25:33;;;;;;;3.72;2.78;;;;;;;32.21;43.61;90952.22;5031023;28;20032;-66
2022/06/13 10:28:33;;;;;;;9.25;3.85;;;;;;;32.15;45.98;90960.25;5031173;28;20033;-67
2022/06/13 10:31:16;;;;;;;5.45;3.22;;;;;;;34.35;40.91;90954.38;5031213;28;20471;-68
2022/06/13 10:34:00;;;;;;;;;;;;;;;34.91;38.12;90958.84;5031372;28;20029;-67
2022/06/13 10:36:52;;;;;;;3.58;3.10;;;;;;;31.92;43.71;90947.63;5030968;28;19919;-67
2022/06/13 10:39:22;;;;;;;3.45;3.03;;;;;;;31.95;47.89;90945.97;5030884;28;20035;-66
2022/06/13 10:41:57;;;;;;;4.72;3.20;;;;;;;34.29;42.43;90947.94;5030943;28;20422;-66
2022/06/13 10:44:23;;;;;;;3.30;2.97;;;;;;;34.78;43.88;90947.91;5027206;28;20103;-66
2022/06/13 10:46:57;;;;;;;3.92;3.25;;;;;;;30.01;49.06;90938.63;5030690;28;20487;-66
2022/06/13 10:49:34;;;;;;;4.13;3.40;;;;;;;29.26;51.56;90934.03;5030585;28;20056;-66
2022/06/13 10:52:05;;;;;;;4.13;3.47;;;;;;;31.28;47.07;90933.00;5030617;28;20030;-67
2022/06/13 10:54:39;;;;;;;7.05;3.95;;;;;;;33.62;44.28;90935.53;5030183;28;20033;-66
2022/06/13 10:57:12;;;;;;;3.92;3.38;;;;;;;31.55;45.74;90936.09;5030620;28;20089;-65
2022/06/13 10:59:38;;;;;;;9.48;3.72;;;;;;;33.02;44.39;90924.72;5030581;28;20099;-65
2022/06/13 11:02:21;;;;;;;4.82;3.58;;;;;;;33.11;45.70;90931.50;5030871;28;20033;-65
2022/06/13 11:05:09;;;;;;;6.90;5.07;;;;;;;31.17;46.05;90916.00;5030447;28;20172;-65
2022/06/13 11:07:43;;;;;;;5.70;3.38;;;;;;;32.89;44.16;90912.97;5030529;28;20103;-66
2022/06/13 11:10:24;;;;;;;3.25;2.95;;;;;;;30.20;49.00;90917.03;5030000;28;20036;-65
2022/06/13 11:12:51;;;;;;;3.38;3.00;;;;;;;28.83;51.59;90909.44;5030659;28;20083;-65
2022/06/13 11:24:06;;;;;;;4.10;3.63;;;;;;;25.83;60.69;90899.22;5030796;28;20742;-66
2022/06/13 11:29:22;;;;;;;10.93;5.30;;;;;;;25.21;65.69;90897.31;5030675;28;20462;-66
2022/06/13 11:31:53;;;;;;;8.23;4.82;;;;;;;25.15;66.04;90890.75;5030569;28;20069;-66
2022/06/13 11:34:32;;;;;;;5.22;3.55;;;;;;;24.97;67.15;90879.97;5030394;28;20109;-66
2022/06/13 11:37:03;;;;;;;11.27;4.68;;;;;;;25.55;66.90;90883.06;5012779;28;20040;-66
2022/06/13 11:39:49;;;;;;;4.75;4.10;;;;;;;25.57;65.51;90875.28;5030455;28;20091;-67
2022/06/13 11:42:27;;;;;;;5.75;4.15;;;;;;;25.27;65.56;90879.41;5030392;28;20040;-67
2022/06/13 11:45:02;;;;;;;4.95;4.00;;;;;;;25.10;66.21;90874.84;5030337;28;20053;-66
2022/06/13 11:47:40;;;;;;;4.25;3.70;;;;;;;25.28;68.40;90886.41;5030497;28;20479;-67
2022/06/13 11:50:28;;;;;;;3.80;3.40;;;;;;;26.22;62.57;90881.72;5030455;28;20498;-66
2022/06/13 11:55:54;;;;;;;5.15;4.30;;;;;;;26.06;61.06;90879.53;5034194;28;20067;-64
2022/06/13 11:58:23;;;;;;;4.93;4.22;;;;;;;25.80;63.38;90877.44;5033617;28;20120;-65
2022/06/13 12:01:09;;;;;;;5.30;3.60;;;;;;;25.11;66.18;90876.41;5033757;28;20026;-65
2022/06/13 12:03:36;;;;;;;3.90;3.50;;;;;;;24.70;65.41;90871.53;5033651;28;20105;-65
2022/06/13 12:06:15;;;;;;;4.97;3.63;;;;;;;24.45;67.20;90877.09;5033455;28;20468;-64
2022/06/13 12:08:41;;;;;;;3.95;3.55;;;;;;;24.32;68.92;90869.78;5033717;28;20147;-64
2022/06/13 12:11:21;;;;;;;4.38;3.30;;;;;;;24.16;68.05;90870.97;5033619;28;20022;-65
2022/06/13 12:13:49;;;;;;;4.85;4.22;;;;;;;24.25;68.54;90869.78;5033776;28;20026;-64
2022/06/13 12:16:34;;;;;;;6.07;4.22;;;;;;;24.29;69.38;90873.25;5033489;28;20035;-65
2022/06/13 12:19:02;;;;;;;4.93;3.50;;;;;;;24.55;68.13;90867.34;5033515;28;20045;-66
2022/06/13 12:21:28;;;;;;;4.43;3.58;;;;;;;24.55;65.15;90872.00;5033379;28;20056;-66
2022/06/13 12:24:26;;;;;;;3.78;2.80;;;;;;;23.91;61.80;90867.53;5033221;28;20037;-66
2022/06/13 12:27:19;;;;;;;5.22;3.42;;;;;;;23.68;61.86;90878.06;5006554;28;20112;-66
2022/06/13 12:30:01;;;;;;;4.87;3.10;;;;;;;23.28;61.20;90875.31;5033308;28;20029;-66